sensor_id;sensor_type;location;lat;lon;timestamp;pressure;altitude;pressure_sealevel;temperature;humidity
3780;BME280;1905;52.482;9.802;2023-05-27T00:00:26;102457.81;;;12.22;62.63
3780;BME280;1905;52.482;9.802;2023-05-27T00:02:53;102464.97;;;12.17;63.27
3780;BME280;1905;52.482;9.802;2023-05-27T00:05:21;102465.03;;;12.14;63.32
3780;BME280;1905;52.482;9.802;2023-05-27T00:07:50;102467.75;;;12.11;63.20
3780;BME280;1905;52.482;9.802;2023-05-27T00:10:17;102463.47;;;12.04;63.45
3780;BME280;1905;52.482;9.802;2023-05-27T00:12:45;102452.88;;;12.04;63.14
3780;BME280;1905;52.482;9.802;2023-05-27T00:15:13;102460.03;;;12.01;63.10
3780;BME280;1905;52.482;9.802;2023-05-27T00:17:41;102463.69;;;11.95;63.54
3780;BME280;1905;52.482;9.802;2023-05-27T00:20:10;102458.50;;;11.89;63.65
3780;BME280;1905;52.482;9.802;2023-05-27T00:22:39;102466.50;;;11.87;63.55
3780;BME280;1905;52.482;9.802;2023-05-27T00:25:09;102467.50;;;11.82;63.91
3780;BME280;1905;52.482;9.802;2023-05-27T00:27:37;102462.25;;;11.79;63.99
3780;BME280;1905;52.482;9.802;2023-05-27T00:30:06;102458.84;;;11.74;63.81
3780;BME280;1905;52.482;9.802;2023-05-27T00:32:34;102458.03;;;11.69;63.54
3780;BME280;1905;52.482;9.802;2023-05-27T00:35:02;102458.06;;;11.66;64.23
3780;BME280;1905;52.482;9.802;2023-05-27T00:37:29;102456.34;;;11.63;63.81
3780;BME280;1905;52.482;9.802;2023-05-27T00:39:57;102465.22;;;11.61;64.26
3780;BME280;1905;52.482;9.802;2023-05-27T00:42:26;102457.31;;;11.58;63.97
3780;BME280;1905;52.482;9.802;2023-05-27T00:44:54;102461.81;;;11.54;63.88
3780;BME280;1905;52.482;9.802;2023-05-27T00:47:21;102461.00;;;11.51;64.41
3780;BME280;1905;52.482;9.802;2023-05-27T00:49:50;102469.03;;;11.46;64.49
3780;BME280;1905;52.482;9.802;2023-05-27T00:52:19;102458.44;;;11.46;64.66
3780;BME280;1905;52.482;9.802;2023-05-27T00:54:47;102448.84;;;11.41;64.17
3780;BME280;1905;52.482;9.802;2023-05-27T00:57:15;102450.72;;;11.35;64.68
3780;BME280;1905;52.482;9.802;2023-05-27T00:59:44;102448.97;;;11.34;63.95
3780;BME280;1905;52.482;9.802;2023-05-27T01:02:12;102449.94;;;11.30;64.55
3780;BME280;1905;52.482;9.802;2023-05-27T01:04:39;102450.81;;;11.29;65.03
3780;BME280;1905;52.482;9.802;2023-05-27T01:07:14;102449.13;;;11.25;63.97
3780;BME280;1905;52.482;9.802;2023-05-27T01:09:48;102457.09;;;11.24;64.92
3780;BME280;1905;52.482;9.802;2023-05-27T01:12:26;102445.69;;;11.20;64.25
3780;BME280;1905;52.482;9.802;2023-05-27T01:14:57;102451.16;;;11.11;64.21
3780;BME280;1905;52.482;9.802;2023-05-27T01:17:26;102457.44;;;11.06;64.62
3780;BME280;1905;52.482;9.802;2023-05-27T01:19:55;102456.53;;;11.05;64.99
3780;BME280;1905;52.482;9.802;2023-05-27T01:22:28;102453.06;;;11.03;64.67
3780;BME280;1905;52.482;9.802;2023-05-27T01:24:55;102461.94;;;10.99;64.93
3780;BME280;1905;52.482;9.802;2023-05-27T01:27:23;102454.09;;;10.95;64.46
3780;BME280;1905;52.482;9.802;2023-05-27T01:29:52;102452.38;;;10.92;64.63
3780;BME280;1905;52.482;9.802;2023-05-27T01:32:24;102451.53;;;10.89;64.83
3780;BME280;1905;52.482;9.802;2023-05-27T01:34:59;102445.50;;;10.79;65.19
3780;BME280;1905;52.482;9.802;2023-05-27T01:37:35;102446.38;;;10.80;64.63
3780;BME280;1905;52.482;9.802;2023-05-27T01:40:05;102447.34;;;10.75;65.22
3780;BME280;1905;52.482;9.802;2023-05-27T01:42:34;102445.69;;;10.70;65.39
3780;BME280;1905;52.482;9.802;2023-05-27T01:45:05;102440.41;;;10.70;64.84
3780;BME280;1905;52.482;9.802;2023-05-27T01:47:33;102436.03;;;10.66;65.51
3780;BME280;1905;52.482;9.802;2023-05-27T01:50:01;102430.84;;;10.60;65.33
3780;BME280;1905;52.482;9.802;2023-05-27T01:52:28;102431.75;;;10.59;64.82
3780;BME280;1905;52.482;9.802;2023-05-27T01:54:57;102430.03;;;10.56;65.35
3780;BME280;1905;52.482;9.802;2023-05-27T01:57:25;102423.88;;;10.56;65.20
3780;BME280;1905;52.482;9.802;2023-05-27T01:59:53;102420.44;;;10.51;65.23
3780;BME280;1905;52.482;9.802;2023-05-27T02:02:22;102435.47;;;10.47;65.37
3780;BME280;1905;52.482;9.802;2023-05-27T02:04:49;102425.81;;;10.45;65.45
3780;BME280;1905;52.482;9.802;2023-05-27T02:07:17;102418.88;;;10.38;65.38
3780;BME280;1905;52.482;9.802;2023-05-27T02:09:47;102424.16;;;10.38;65.57
3780;BME280;1905;52.482;9.802;2023-05-27T02:12:16;102422.50;;;10.31;65.50
3780;BME280;1905;52.482;9.802;2023-05-27T02:14:44;102418.09;;;10.31;65.85
3780;BME280;1905;52.482;9.802;2023-05-27T02:17:11;102419.94;;;10.26;65.82
3780;BME280;1905;52.482;9.802;2023-05-27T02:19:41;102422.66;;;10.22;66.39
3780;BME280;1905;52.482;9.802;2023-05-27T02:22:09;102420.94;;;10.18;65.71
3780;BME280;1905;52.482;9.802;2023-05-27T02:24:37;102427.13;;;10.15;66.40
3780;BME280;1905;52.482;9.802;2023-05-27T02:27:05;102423.63;;;10.11;65.97
3780;BME280;1905;52.482;9.802;2023-05-27T02:29:36;102432.47;;;10.07;65.99
3780;BME280;1905;52.482;9.802;2023-05-27T02:32:04;102429.00;;;10.05;66.25
3780;BME280;1905;52.482;9.802;2023-05-27T02:34:32;102429.88;;;10.03;65.73
3780;BME280;1905;52.482;9.802;2023-05-27T02:37:04;102430.84;;;9.99;66.38
3780;BME280;1905;52.482;9.802;2023-05-27T02:39:32;102437.00;;;9.99;66.04
3780;BME280;1905;52.482;9.802;2023-05-27T02:42:00;102435.28;;;9.95;65.59
3780;BME280;1905;52.482;9.802;2023-05-27T02:44:27;102433.59;;;9.91;66.50
3780;BME280;1905;52.482;9.802;2023-05-27T02:46:57;102438.91;;;9.88;66.33
3780;BME280;1905;52.482;9.802;2023-05-27T02:49:26;102444.22;;;9.85;66.30
3780;BME280;1905;52.482;9.802;2023-05-27T02:51:54;102440.75;;;9.80;66.64
3780;BME280;1905;52.482;9.802;2023-05-27T02:54:22;102444.28;;;9.79;66.59
3780;BME280;1905;52.482;9.802;2023-05-27T02:56:49;102444.28;;;9.79;66.46
3780;BME280;1905;52.482;9.802;2023-05-27T02:59:17;102448.75;;;9.74;66.60
3780;BME280;1905;52.482;9.802;2023-05-27T03:01:45;102448.81;;;9.70;66.00
3780;BME280;1905;52.482;9.802;2023-05-27T03:04:14;102449.69;;;9.70;66.09
3780;BME280;1905;52.482;9.802;2023-05-27T03:06:42;102447.94;;;9.66;65.62
3780;BME280;1905;52.482;9.802;2023-05-27T03:09:10;102450.63;;;9.65;66.79
3780;BME280;1905;52.482;9.802;2023-05-27T03:11:38;102455.06;;;9.61;65.98
3780;BME280;1905;52.482;9.802;2023-05-27T03:14:05;102455.09;;;9.55;66.09
3780;BME280;1905;52.482;9.802;2023-05-27T03:16:33;102452.50;;;9.53;66.29
3780;BME280;1905;52.482;9.802;2023-05-27T03:19:05;102444.59;;;9.52;66.29
3780;BME280;1905;52.482;9.802;2023-05-27T03:21:37;102434.97;;;9.48;67.07
3780;BME280;1905;52.482;9.802;2023-05-27T03:24:05;102427.09;;;9.45;66.07
3780;BME280;1905;52.482;9.802;2023-05-27T03:26:33;102435.03;;;9.42;66.60
3780;BME280;1905;52.482;9.802;2023-05-27T03:29:03;102434.16;;;9.41;67.23
3780;BME280;1905;52.482;9.802;2023-05-27T03:31:31;102428.03;;;9.38;65.99
3780;BME280;1905;52.482;9.802;2023-05-27T03:34:10;102434.22;;;9.37;65.96
3780;BME280;1905;52.482;9.802;2023-05-27T03:36:41;102440.38;;;9.36;66.34
3780;BME280;1905;52.482;9.802;2023-05-27T03:39:14;102433.41;;;9.30;66.40
3780;BME280;1905;52.482;9.802;2023-05-27T03:41:50;102429.03;;;9.28;66.43
3780;BME280;1905;52.482;9.802;2023-05-27T03:44:18;102436.09;;;9.26;66.48
3780;BME280;1905;52.482;9.802;2023-05-27T03:46:46;102429.09;;;9.22;67.45
3780;BME280;1905;52.482;9.802;2023-05-27T03:49:14;102435.25;;;9.22;66.77
3780;BME280;1905;52.482;9.802;2023-05-27T03:51:43;102438.78;;;9.20;66.71
3780;BME280;1905;52.482;9.802;2023-05-27T03:54:12;102431.78;;;9.17;66.40
3780;BME280;1905;52.482;9.802;2023-05-27T03:56:40;102430.00;;;9.19;66.96
3780;BME280;1905;52.482;9.802;2023-05-27T03:59:07;102435.31;;;9.15;67.05
3780;BME280;1905;52.482;9.802;2023-05-27T04:01:35;102443.22;;;9.15;67.67
3780;BME280;1905;52.482;9.802;2023-05-27T04:04:03;102433.59;;;9.12;66.64
3780;BME280;1905;52.482;9.802;2023-05-27T04:06:31;102435.34;;;9.12;66.74
3780;BME280;1905;52.482;9.802;2023-05-27T04:09:01;102438.88;;;9.09;67.13
3780;BME280;1905;52.482;9.802;2023-05-27T04:11:29;102428.38;;;9.06;67.57
3780;BME280;1905;52.482;9.802;2023-05-27T04:13:57;102424.84;;;9.07;66.93
3780;BME280;1905;52.482;9.802;2023-05-27T04:16:25;102427.50;;;9.06;66.64
3780;BME280;1905;52.482;9.802;2023-05-27T04:18:54;102425.75;;;9.05;67.07
3780;BME280;1905;52.482;9.802;2023-05-27T04:21:22;102429.28;;;9.04;66.52
3780;BME280;1905;52.482;9.802;2023-05-27T04:23:51;102422.25;;;9.03;67.47
3780;BME280;1905;52.482;9.802;2023-05-27T04:26:21;102416.13;;;9.02;67.44
3780;BME280;1905;52.482;9.802;2023-05-27T04:28:52;102412.63;;;9.02;67.02
3780;BME280;1905;52.482;9.802;2023-05-27T04:31:21;102415.25;;;9.00;66.92
3780;BME280;1905;52.482;9.802;2023-05-27T04:33:56;102420.53;;;9.02;66.65
3780;BME280;1905;52.482;9.802;2023-05-27T04:36:24;102416.13;;;9.01;67.52
3780;BME280;1905;52.482;9.802;2023-05-27T04:39:06;102434.59;;;8.97;67.86
3780;BME280;1905;52.482;9.802;2023-05-27T04:41:37;102428.44;;;9.02;68.32
3780;BME280;1905;52.482;9.802;2023-05-27T04:44:11;102429.31;;;9.01;68.26
3780;BME280;1905;52.482;9.802;2023-05-27T04:46:42;102424.91;;;9.01;66.99
3780;BME280;1905;52.482;9.802;2023-05-27T04:49:11;102430.16;;;9.03;68.29
3780;BME280;1905;52.482;9.802;2023-05-27T04:51:38;102434.56;;;9.01;67.99
3780;BME280;1905;52.482;9.802;2023-05-27T04:54:06;102432.75;;;9.06;67.98
3780;BME280;1905;52.482;9.802;2023-05-27T04:56:34;102429.31;;;9.01;68.31
3780;BME280;1905;52.482;9.802;2023-05-27T04:59:04;102430.16;;;9.04;68.43
3780;BME280;1905;52.482;9.802;2023-05-27T05:01:33;102432.75;;;9.06;67.75
3780;BME280;1905;52.482;9.802;2023-05-27T05:04:25;102436.25;;;9.09;67.17
3780;BME280;1905;52.482;9.802;2023-05-27T05:06:57;102430.91;;;9.17;67.10
3780;BME280;1905;52.482;9.802;2023-05-27T05:09:25;102434.47;;;9.13;66.79
3780;BME280;1905;52.482;9.802;2023-05-27T05:11:55;102438.81;;;9.18;66.65
3780;BME280;1905;52.482;9.802;2023-05-27T05:14:24;102429.94;;;9.25;66.70
3780;BME280;1905;52.482;9.802;2023-05-27T05:16:52;102434.31;;;9.28;65.98
3780;BME280;1905;52.482;9.802;2023-05-27T05:19:20;102430.78;;;9.29;66.56
3780;BME280;1905;52.482;9.802;2023-05-27T05:21:47;102436.06;;;9.29;65.65
3780;BME280;1905;52.482;9.802;2023-05-27T05:24:15;102436.88;;;9.32;66.38
3780;BME280;1905;52.482;9.802;2023-05-27T05:26:44;102430.75;;;9.33;66.59
3780;BME280;1905;52.482;9.802;2023-05-27T05:29:13;102436.03;;;9.32;66.50
3780;BME280;1905;52.482;9.802;2023-05-27T05:31:42;102430.75;;;9.32;66.56
3780;BME280;1905;52.482;9.802;2023-05-27T05:34:15;102430.69;;;9.39;66.11
3780;BME280;1905;52.482;9.802;2023-05-27T05:36:44;102431.50;;;9.44;65.83
3780;BME280;1905;52.482;9.802;2023-05-27T05:39:12;102426.19;;;9.46;66.23
3780;BME280;1905;52.482;9.802;2023-05-27T05:41:44;102428.81;;;9.47;65.77
3780;BME280;1905;52.482;9.802;2023-05-27T05:44:17;102429.72;;;9.46;67.74
3780;BME280;1905;52.482;9.802;2023-05-27T05:46:46;102437.59;;;9.51;66.42
3780;BME280;1905;52.482;9.802;2023-05-27T05:49:15;102439.28;;;9.56;67.58
3780;BME280;1905;52.482;9.802;2023-05-27T05:51:44;102435.75;;;9.57;69.79
3780;BME280;1905;52.482;9.802;2023-05-27T05:54:12;102432.19;;;9.60;68.30
3780;BME280;1905;52.482;9.802;2023-05-27T05:56:46;102426.00;;;9.63;67.49
3780;BME280;1905;52.482;9.802;2023-05-27T05:59:14;102426.84;;;9.66;68.80
3780;BME280;1905;52.482;9.802;2023-05-27T06:01:42;102426.78;;;9.72;73.67
3780;BME280;1905;52.482;9.802;2023-05-27T06:04:11;102431.16;;;9.73;73.30
3780;BME280;1905;52.482;9.802;2023-05-27T06:06:42;102427.59;;;9.77;71.55
3780;BME280;1905;52.482;9.802;2023-05-27T06:09:28;102431.91;;;9.84;74.34
3780;BME280;1905;52.482;9.802;2023-05-27T06:12:00;102416.00;;;9.90;75.99
3780;BME280;1905;52.482;9.802;2023-05-27T06:14:34;102422.13;;;9.94;73.91
3780;BME280;1905;52.482;9.802;2023-05-27T06:17:02;102425.50;;;10.03;74.96
3780;BME280;1905;52.482;9.802;2023-05-27T06:19:31;102428.06;;;10.09;72.61
3780;BME280;1905;52.482;9.802;2023-05-27T06:21:59;102433.25;;;10.19;77.39
3780;BME280;1905;52.482;9.802;2023-05-27T06:24:45;102424.38;;;10.24;77.56
3780;BME280;1905;52.482;9.802;2023-05-27T06:27:19;102420.78;;;10.30;76.32
3780;BME280;1905;52.482;9.802;2023-05-27T06:29:46;102427.75;;;10.34;74.96
3780;BME280;1905;52.482;9.802;2023-05-27T06:32:20;102425.81;;;10.45;77.60
3780;BME280;1905;52.482;9.802;2023-05-27T06:34:49;102419.59;;;10.47;73.96
3780;BME280;1905;52.482;9.802;2023-05-27T06:37:17;102425.66;;;10.55;77.96
3780;BME280;1905;52.482;9.802;2023-05-27T06:39:45;102423.78;;;10.62;77.27
3780;BME280;1905;52.482;9.802;2023-05-27T06:42:13;102416.56;;;10.73;77.41
3780;BME280;1905;52.482;9.802;2023-05-27T06:44:47;102425.19;;;10.84;77.30
3780;BME280;1905;52.482;9.802;2023-05-27T06:47:20;102421.59;;;10.88;75.79
3780;BME280;1905;52.482;9.802;2023-05-27T06:49:50;102420.56;;;10.97;76.77
3780;BME280;1905;52.482;9.802;2023-05-27T06:52:18;102417.69;;;11.10;79.66
3780;BME280;1905;52.482;9.802;2023-05-27T06:55:07;102421.06;;;11.18;75.73
3780;BME280;1905;52.482;9.802;2023-05-27T06:57:53;102423.53;;;11.26;76.04
3780;BME280;1905;52.482;9.802;2023-05-27T07:00:28;102413.69;;;11.35;74.82
3780;BME280;1905;52.482;9.802;2023-05-27T07:03:14;102417.91;;;11.44;75.58
3780;BME280;1905;52.482;9.802;2023-05-27T07:05:43;102415.06;;;11.55;74.75
3780;BME280;1905;52.482;9.802;2023-05-27T07:08:12;102409.50;;;11.70;77.56
3780;BME280;1905;52.482;9.802;2023-05-27T07:10:41;102410.25;;;11.76;75.97
3780;BME280;1905;52.482;9.802;2023-05-27T07:13:08;102412.59;;;11.90;77.30
3780;BME280;1905;52.482;9.802;2023-05-27T07:15:45;102408.84;;;12.00;76.69
3780;BME280;1905;52.482;9.802;2023-05-27T07:18:13;102409.50;;;12.10;74.58
3780;BME280;1905;52.482;9.802;2023-05-27T07:20:43;102403.19;;;12.17;74.51
3780;BME280;1905;52.482;9.802;2023-05-27T07:23:13;102398.50;;;12.28;76.78
3780;BME280;1905;52.482;9.802;2023-05-27T07:25:45;102398.28;;;12.37;73.05
3780;BME280;1905;52.482;9.802;2023-05-27T07:28:12;102393.72;;;12.43;74.09
3780;BME280;1905;52.482;9.802;2023-05-27T07:30:44;102391.63;;;12.58;72.76
3780;BME280;1905;52.482;9.802;2023-05-27T07:33:13;102384.28;;;12.69;72.35
3780;BME280;1905;52.482;9.802;2023-05-27T07:35:41;102390.94;;;12.85;75.08
3780;BME280;1905;52.482;9.802;2023-05-27T07:38:11;102380.84;;;12.97;71.93
3780;BME280;1905;52.482;9.802;2023-05-27T07:40:38;102380.59;;;13.08;72.00
3780;BME280;1905;52.482;9.802;2023-05-27T07:43:06;102370.50;;;13.22;70.87
3780;BME280;1905;52.482;9.802;2023-05-27T07:45:34;102369.97;;;13.40;71.10
3780;BME280;1905;52.482;9.802;2023-05-27T07:48:02;102364.41;;;13.49;69.73
3780;BME280;1905;52.482;9.802;2023-05-27T07:50:29;102369.38;;;13.61;69.87
3780;BME280;1905;52.482;9.802;2023-05-27T07:53:02;102368.03;;;13.76;70.91
3780;BME280;1905;52.482;9.802;2023-05-27T07:55:32;102369.28;;;13.94;68.00
3780;BME280;1905;52.482;9.802;2023-05-27T07:58:00;102365.19;;;14.11;69.00
3780;BME280;1905;52.482;9.802;2023-05-27T08:00:34;102370.63;;;14.36;68.41
3780;BME280;1905;52.482;9.802;2023-05-27T08:03:02;102361.31;;;14.49;66.75
3780;BME280;1905;52.482;9.802;2023-05-27T08:05:46;102353.69;;;14.65;67.10
3780;BME280;1905;52.482;9.802;2023-05-27T08:08:34;102348.56;;;14.86;65.83
3780;BME280;1905;52.482;9.802;2023-05-27T08:11:21;102344.47;;;15.01;65.33
3780;BME280;1905;52.482;9.802;2023-05-27T08:14:15;102341.88;;;15.24;65.74
3780;BME280;1905;52.482;9.802;2023-05-27T08:16:50;102338.44;;;15.44;64.71
3780;BME280;1905;52.482;9.802;2023-05-27T08:19:32;102349.38;;;15.61;64.70
3780;BME280;1905;52.482;9.802;2023-05-27T08:22:10;102336.28;;;15.78;62.75
3780;BME280;1905;52.482;9.802;2023-05-27T08:24:57;102334.66;;;15.97;63.84
3780;BME280;1905;52.482;9.802;2023-05-27T08:27:46;102328.69;;;16.13;61.02
3780;BME280;1905;52.482;9.802;2023-05-27T08:30:20;102313.56;;;16.35;63.10
3780;BME280;1905;52.482;9.802;2023-05-27T08:32:54;102316.31;;;16.55;61.53
3780;BME280;1905;52.482;9.802;2023-05-27T08:35:22;102311.91;;;16.74;61.78
3780;BME280;1905;52.482;9.802;2023-05-27T08:37:50;102311.84;;;16.96;62.32
3780;BME280;1905;52.482;9.802;2023-05-27T08:40:19;102314.56;;;17.14;62.00
3780;BME280;1905;52.482;9.802;2023-05-27T08:42:51;102310.97;;;17.34;62.91
3780;BME280;1905;52.482;9.802;2023-05-27T08:45:21;102303.34;;;17.45;60.95
3780;BME280;1905;52.482;9.802;2023-05-27T08:47:50;102310.34;;;17.68;61.37
3780;BME280;1905;52.482;9.802;2023-05-27T08:50:23;102308.66;;;17.84;61.85
3780;BME280;1905;52.482;9.802;2023-05-27T08:52:53;102301.78;;;17.97;61.62
3780;BME280;1905;52.482;9.802;2023-05-27T08:55:24;102308.25;;;18.10;60.75
3780;BME280;1905;52.482;9.802;2023-05-27T08:57:57;102301.41;;;18.23;59.16
3780;BME280;1905;52.482;9.802;2023-05-27T09:00:28;102292.97;;;18.31;57.21
3780;BME280;1905;52.482;9.802;2023-05-27T09:03:02;102304.69;;;18.45;58.27
3780;BME280;1905;52.482;9.802;2023-05-27T09:05:33;102302.69;;;18.68;60.72
3780;BME280;1905;52.482;9.802;2023-05-27T09:08:00;102293.75;;;18.69;59.10
3780;BME280;1905;52.482;9.802;2023-05-27T09:10:35;102290.09;;;18.87;58.97
3780;BME280;1905;52.482;9.802;2023-05-27T09:13:04;102294.00;;;18.97;58.35
3780;BME280;1905;52.482;9.802;2023-05-27T09:15:32;102282.75;;;19.08;57.52
3780;BME280;1905;52.482;9.802;2023-05-27T09:18:02;102290.38;;;19.15;56.72
3780;BME280;1905;52.482;9.802;2023-05-27T09:20:30;102280.81;;;19.27;58.37
3780;BME280;1905;52.482;9.802;2023-05-27T09:22:58;102283.56;;;19.25;55.33
3780;BME280;1905;52.482;9.802;2023-05-27T09:25:27;102283.06;;;19.34;56.77
3780;BME280;1905;52.482;9.802;2023-05-27T09:27:55;102278.59;;;19.35;55.96
3780;BME280;1905;52.482;9.802;2023-05-27T09:30:24;102278.81;;;19.47;56.20
3780;BME280;1905;52.482;9.802;2023-05-27T09:33:00;102269.81;;;19.48;54.49
3780;BME280;1905;52.482;9.802;2023-05-27T09:35:28;102276.91;;;19.49;55.17
3780;BME280;1905;52.482;9.802;2023-05-27T09:38:05;102278.97;;;19.60;54.75
3780;BME280;1905;52.482;9.802;2023-05-27T09:40:35;102274.50;;;19.60;54.39
3780;BME280;1905;52.482;9.802;2023-05-27T09:43:03;102267.06;;;19.66;55.63
3780;BME280;1905;52.482;9.802;2023-05-27T09:45:33;102270.75;;;19.63;54.23
3780;BME280;1905;52.482;9.802;2023-05-27T09:48:01;102262.38;;;19.69;54.75
3780;BME280;1905;52.482;9.802;2023-05-27T09:50:30;102255.28;;;19.68;53.83
3780;BME280;1905;52.482;9.802;2023-05-27T09:52:59;102249.75;;;19.71;53.88
3780;BME280;1905;52.482;9.802;2023-05-27T09:55:36;102252.88;;;19.64;52.80
3780;BME280;1905;52.482;9.802;2023-05-27T09:58:05;102254.19;;;19.56;51.36
3780;BME280;1905;52.482;9.802;2023-05-27T10:00:35;102247.06;;;19.55;52.88
3780;BME280;1905;52.482;9.802;2023-05-27T10:03:07;102251.31;;;19.59;52.52
3780;BME280;1905;52.482;9.802;2023-05-27T10:05:37;102256.00;;;19.56;52.36
3780;BME280;1905;52.482;9.802;2023-05-27T10:08:05;102253.47;;;19.53;52.57
3780;BME280;1905;52.482;9.802;2023-05-27T10:10:51;102247.34;;;19.51;52.86
3780;BME280;1905;52.482;9.802;2023-05-27T10:13:20;102242.38;;;19.43;51.36
3780;BME280;1905;52.482;9.802;2023-05-27T10:15:51;102247.41;;;19.49;52.93
3780;BME280;1905;52.482;9.802;2023-05-27T10:18:23;102240.34;;;19.48;53.12
3780;BME280;1905;52.482;9.802;2023-05-27T10:20:51;102231.50;;;19.46;53.29
3780;BME280;1905;52.482;9.802;2023-05-27T10:23:23;102227.75;;;19.33;51.53
3780;BME280;1905;52.482;9.802;2023-05-27T10:25:53;102225.84;;;19.35;52.83
3780;BME280;1905;52.482;9.802;2023-05-27T10:28:26;102224.13;;;19.34;52.43
3780;BME280;1905;52.482;9.802;2023-05-27T10:31:04;102215.28;;;19.32;53.87
3780;BME280;1905;52.482;9.802;2023-05-27T10:33:36;102221.00;;;19.26;52.54
3780;BME280;1905;52.482;9.802;2023-05-27T10:36:07;102212.16;;;19.24;52.11
3780;BME280;1905;52.482;9.802;2023-05-27T10:38:36;102217.34;;;19.27;52.54
3780;BME280;1905;52.482;9.802;2023-05-27T10:41:05;102217.34;;;19.27;53.57
3780;BME280;1905;52.482;9.802;2023-05-27T10:43:34;102213.75;;;19.28;53.20
3780;BME280;1905;52.482;9.802;2023-05-27T10:46:09;102209.31;;;19.27;53.05
3780;BME280;1905;52.482;9.802;2023-05-27T10:48:37;102205.28;;;19.20;51.28
3780;BME280;1905;52.482;9.802;2023-05-27T10:51:07;102201.44;;;19.24;52.18
3780;BME280;1905;52.482;9.802;2023-05-27T10:53:36;102201.66;;;19.21;52.66
3780;BME280;1905;52.482;9.802;2023-05-27T10:56:04;102201.66;;;19.21;53.16
3780;BME280;1905;52.482;9.802;2023-05-27T10:58:33;102203.53;;;19.19;52.93
3780;BME280;1905;52.482;9.802;2023-05-27T11:01:09;102198.00;;;19.22;52.06
3780;BME280;1905;52.482;9.802;2023-05-27T11:03:42;102195.66;;;19.16;52.29
3780;BME280;1905;52.482;9.802;2023-05-27T11:06:11;102193.34;;;19.10;51.51
3780;BME280;1905;52.482;9.802;2023-05-27T11:08:40;102183.22;;;19.15;52.34
3780;BME280;1905;52.482;9.802;2023-05-27T11:11:10;102182.25;;;19.16;52.55
3780;BME280;1905;52.482;9.802;2023-05-27T11:13:39;102181.16;;;19.20;53.57
3780;BME280;1905;52.482;9.802;2023-05-27T11:16:13;102180.22;;;19.21;52.48
3780;BME280;1905;52.482;9.802;2023-05-27T11:18:43;102176.56;;;19.22;53.23
3780;BME280;1905;52.482;9.802;2023-05-27T11:21:12;102165.94;;;19.21;52.69
3780;BME280;1905;52.482;9.802;2023-05-27T11:23:43;102174.88;;;19.21;53.61
3780;BME280;1905;52.482;9.802;2023-05-27T11:26:12;102162.22;;;19.23;53.13
3780;BME280;1905;52.482;9.802;2023-05-27T11:28:48;102155.84;;;19.26;53.28
3780;BME280;1905;52.482;9.802;2023-05-27T11:31:27;102156.72;;;19.26;52.90
3780;BME280;1905;52.482;9.802;2023-05-27T11:33:55;102152.88;;;19.30;53.00
3780;BME280;1905;52.482;9.802;2023-05-27T11:36:26;102150.38;;;19.27;53.37
3780;BME280;1905;52.482;9.802;2023-05-27T11:38:55;102160.16;;;19.28;52.26
3780;BME280;1905;52.482;9.802;2023-05-27T11:41:28;102150.91;;;19.34;52.59
3780;BME280;1905;52.482;9.802;2023-05-27T11:43:57;102145.44;;;19.35;53.99
3780;BME280;1905;52.482;9.802;2023-05-27T11:46:34;102142.56;;;19.40;53.58
3780;BME280;1905;52.482;9.802;2023-05-27T11:49:02;102139.00;;;19.39;53.31
3780;BME280;1905;52.482;9.802;2023-05-27T11:51:30;102132.34;;;19.46;53.71
3780;BME280;1905;52.482;9.802;2023-05-27T11:53:58;102125.88;;;19.50;52.90
3780;BME280;1905;52.482;9.802;2023-05-27T11:56:27;102128.38;;;19.53;51.06
3780;BME280;1905;52.482;9.802;2023-05-27T11:58:56;102114.88;;;19.55;52.07
3780;BME280;1905;52.482;9.802;2023-05-27T12:01:25;102121.09;;;19.55;52.04
3780;BME280;1905;52.482;9.802;2023-05-27T12:03:54;102117.38;;;19.58;52.90
3780;BME280;1905;52.482;9.802;2023-05-27T12:06:21;102116.31;;;19.60;51.35
3780;BME280;1905;52.482;9.802;2023-05-27T12:08:52;102108.22;;;19.62;52.54
3780;BME280;1905;52.482;9.802;2023-05-27T12:11:19;102104.28;;;19.68;52.40
3780;BME280;1905;52.482;9.802;2023-05-27T12:13:48;102106.72;;;19.72;52.40
3780;BME280;1905;52.482;9.802;2023-05-27T12:16:17;102108.25;;;19.76;52.83
3780;BME280;1905;52.482;9.802;2023-05-27T12:18:45;102099.25;;;19.77;50.86
3780;BME280;1905;52.482;9.802;2023-05-27T12:21:14;102094.41;;;19.84;51.17
3780;BME280;1905;52.482;9.802;2023-05-27T12:23:42;102086.06;;;19.88;51.29
3780;BME280;1905;52.482;9.802;2023-05-27T12:26:12;102088.28;;;19.96;50.99
3780;BME280;1905;52.482;9.802;2023-05-27T12:28:40;102087.25;;;19.98;50.36
3780;BME280;1905;52.482;9.802;2023-05-27T12:31:08;102071.84;;;20.02;52.40
3780;BME280;1905;52.482;9.802;2023-05-27T12:33:36;102076.84;;;20.08;52.83
3780;BME280;1905;52.482;9.802;2023-05-27T12:36:04;102071.47;;;20.08;52.02
3780;BME280;1905;52.482;9.802;2023-05-27T12:38:33;102064.94;;;20.12;50.24
3780;BME280;1905;52.482;9.802;2023-05-27T12:41:01;102063.63;;;20.19;51.19
3780;BME280;1905;52.482;9.802;2023-05-27T12:43:29;102062.41;;;20.25;52.58
3780;BME280;1905;52.482;9.802;2023-05-27T12:45:57;102056.19;;;20.24;53.10
3780;BME280;1905;52.482;9.802;2023-05-27T12:48:25;102051.97;;;20.34;51.82
3780;BME280;1905;52.482;9.802;2023-05-27T12:50:53;102044.47;;;20.39;52.82
3780;BME280;1905;52.482;9.802;2023-05-27T12:53:21;102047.72;;;20.44;51.09
3780;BME280;1905;52.482;9.802;2023-05-27T12:55:49;102039.09;;;20.53;52.34
3780;BME280;1905;52.482;9.802;2023-05-27T12:58:17;102038.72;;;20.59;50.85
3780;BME280;1905;52.482;9.802;2023-05-27T13:00:46;102039.09;;;20.67;51.09
3780;BME280;1905;52.482;9.802;2023-05-27T13:03:14;102031.41;;;20.75;51.88
3780;BME280;1905;52.482;9.802;2023-05-27T13:05:42;102038.97;;;20.83;51.51
3780;BME280;1905;52.482;9.802;2023-05-27T13:08:10;102033.84;;;20.93;52.16
3780;BME280;1905;52.482;9.802;2023-05-27T13:10:37;102017.13;;;21.02;52.16
3780;BME280;1905;52.482;9.802;2023-05-27T13:13:08;102012.91;;;21.12;52.47
3780;BME280;1905;52.482;9.802;2023-05-27T13:15:36;102014.22;;;21.19;50.41
3780;BME280;1905;52.482;9.802;2023-05-27T13:18:04;102014.19;;;21.33;51.95
3780;BME280;1905;52.482;9.802;2023-05-27T13:20:33;102013.25;;;21.47;51.84
3780;BME280;1905;52.482;9.802;2023-05-27T13:23:01;102013.25;;;21.59;51.42
3780;BME280;1905;52.482;9.802;2023-05-27T13:25:29;102011.25;;;21.75;50.66
3780;BME280;1905;52.482;9.802;2023-05-27T13:27:57;102006.00;;;21.86;52.25
3780;BME280;1905;52.482;9.802;2023-05-27T13:30:26;101999.53;;;22.02;52.11